Time;durP1;ratioP1;P1;durP2;ratioP2;P2;SDS_P1;SDS_P2;PMS_P1;PMS_P2;Temp;Humidity;BMP_temperature;BMP_pressure;BME280_temperature;BME280_humidity;BME280_pressure;Samples;Min_cycle;Max_cycle;Signal;HPM_P1;HPM_P2
2023/06/09 00:02:18;;;;;;;0.00;0.00;;;;;;;14.97;73.71;98244.84;5041007;28;20562;-62
2023/06/09 00:04:49;;;;;;;0.00;0.00;;;;;;;14.93;73.10;98246.22;5039444;28;20290;-62
2023/06/09 00:07:16;;;;;;;0.00;0.00;;;;;;;14.86;73.04;98246.16;5040156;28;20324;-62
2023/06/09 00:09:49;;;;;;;0.00;0.00;;;;;;;14.85;73.75;98244.53;5039846;28;20359;-62
2023/06/09 00:12:15;;;;;;;0.00;0.00;;;;;;;14.84;73.28;98243.72;5042944;28;20243;-62
2023/06/09 00:15:10;;;;;;;0.00;0.00;;;;;;;14.88;72.53;98239.72;5038851;28;20240;-62
2023/06/09 00:17:38;;;;;;;0.00;0.00;;;;;;;14.82;71.78;98243.13;5041088;28;20229;-62
2023/06/09 00:20:08;;;;;;;0.00;0.00;;;;;;;14.81;72.71;98240.66;5042587;28;20683;-62
2023/06/09 00:22:42;;;;;;;0.00;0.00;;;;;;;14.80;73.52;98234.63;5040926;28;20797;-62
2023/06/09 00:25:10;;;;;;;0.00;0.00;;;;;;;14.79;73.19;98229.53;5041447;28;20236;-62
2023/06/09 00:27:37;;;;;;;0.00;0.00;;;;;;;14.74;73.01;98232.72;5045503;28;20286;-62
2023/06/09 00:30:04;;;;;;;0.00;0.00;;;;;;;14.70;72.92;98234.09;5039744;28;20243;-62
2023/06/09 00:32:33;;;;;;;0.00;0.00;;;;;;;14.70;73.06;98234.91;5042806;28;20931;-62
2023/06/09 00:35:00;;;;;;;0.00;0.00;;;;;;;14.67;73.47;98230.00;5039347;28;20227;-62
2023/06/09 00:37:26;;;;;;;0.00;0.00;;;;;;;14.65;73.32;98232.00;5043467;28;20227;-62
2023/06/09 00:39:53;;;;;;;0.00;0.00;;;;;;;14.66;73.37;98232.81;5038889;28;20278;-62
2023/06/09 00:42:19;;;;;;;0.00;0.00;;;;;;;14.67;73.78;98226.56;5045365;28;20243;-62
2023/06/09 00:44:49;;;;;;;0.00;0.00;;;;;;;14.56;73.70;98226.06;5048537;28;20342;-62
2023/06/09 00:47:15;;;;;;;0.00;0.00;;;;;;;14.57;73.00;98226.88;5042791;28;20236;-62
2023/06/09 00:50:11;;;;;;;0.00;0.00;;;;;;;14.59;73.65;98225.69;5040109;28;20631;-62
2023/06/09 00:52:38;;;;;;;0.00;0.00;;;;;;;14.56;73.42;98220.81;5039519;28;20278;-62
2023/06/09 00:55:05;;;;;;;0.00;0.00;;;;;;;14.57;73.03;98217.19;5037805;28;20228;-62
2023/06/09 00:57:33;;;;;;;0.00;0.00;;;;;;;14.51;73.72;98220.56;5044399;28;20285;-62
2023/06/09 01:00:00;;;;;;;0.00;0.00;;;;;;;14.57;74.13;98216.34;5040232;28;20235;-62
2023/06/09 01:02:27;;;;;;;0.00;0.00;;;;;;;14.52;74.34;98226.59;5042802;28;20246;-62
2023/06/09 01:04:54;;;;;;;0.00;0.00;;;;;;;14.47;74.09;98224.56;5038922;28;20691;-62
2023/06/09 01:07:33;;;;;;;0.00;0.00;;;;;;;14.46;74.79;98228.19;5041249;28;20310;-62
2023/06/09 01:10:08;;;;;;;0.00;0.00;;;;;;;14.42;74.97;98230.34;5037592;28;20225;-62
2023/06/09 01:12:42;;;;;;;0.00;0.00;;;;;;;14.40;74.94;98232.34;5036972;28;20227;-62
2023/06/09 01:15:12;;;;;;;0.00;0.00;;;;;;;14.36;75.29;98227.66;5017569;28;20246;-62
2023/06/09 01:17:42;;;;;;;0.00;0.00;;;;;;;14.31;75.53;98233.44;5019397;28;20311;-62
2023/06/09 01:20:16;;;;;;;0.00;0.00;;;;;;;14.29;76.02;98233.66;5046850;28;20230;-62
2023/06/09 01:22:54;;;;;;;0.00;0.00;;;;;;;14.26;76.37;98231.38;5039496;28;20281;-62
2023/06/09 01:25:35;;;;;;;0.00;0.00;;;;;;;14.23;76.63;98225.69;5039801;28;20289;-62
2023/06/09 01:28:05;;;;;;;0.00;0.00;;;;;;;14.21;75.73;98228.50;5038785;28;20261;-62
2023/06/09 01:30:36;;;;;;;0.00;0.00;;;;;;;14.23;75.22;98220.47;5042744;28;20229;-62
2023/06/09 01:33:06;;;;;;;0.00;0.00;;;;;;;14.21;76.81;98225.88;5036141;28;20238;-62
2023/06/09 01:35:34;;;;;;;0.00;0.00;;;;;;;14.17;75.51;98220.19;5037374;28;20234;-62
2023/06/09 01:38:01;;;;;;;0.00;0.00;;;;;;;14.27;75.01;98219.09;5027669;28;20765;-62
2023/06/09 01:40:29;;;;;;;0.00;0.00;;;;;;;14.21;75.26;98218.00;5042400;28;20237;-62
2023/06/09 01:43:00;;;;;;;0.00;0.00;;;;;;;14.22;75.27;98216.19;5028187;28;20649;-62
2023/06/09 01:45:27;;;;;;;0.00;0.00;;;;;;;14.25;75.46;98213.22;5043162;28;20251;-62
2023/06/09 01:47:54;;;;;;;0.00;0.00;;;;;;;14.24;76.42;98211.59;5041957;28;20226;-62
2023/06/09 01:50:27;;;;;;;0.00;0.00;;;;;;;14.18;77.36;98215.75;5037738;28;20231;-62
2023/06/09 01:52:59;;;;;;;0.00;0.00;;;;;;;14.19;77.93;98206.88;5037788;28;20238;-62
2023/06/09 01:55:33;;;;;;;0.00;0.00;;;;;;;14.19;77.48;98208.69;5033485;28;20232;-62
2023/06/09 01:58:07;;;;;;;0.00;0.00;;;;;;;14.17;79.17;98211.50;5038553;28;20219;-62
2023/06/09 02:00:34;;;;;;;0.00;0.00;;;;;;;14.12;79.10;98208.59;5041620;28;20235;-62
2023/06/09 02:03:06;;;;;;;0.00;0.00;;;;;;;14.10;79.12;98206.19;5033520;28;20238;-62
2023/06/09 02:05:36;;;;;;;0.00;0.00;;;;;;;14.14;78.90;98196.94;5038073;28;20289;-62
2023/06/09 02:08:03;;;;;;;0.00;0.00;;;;;;;14.12;79.22;98195.47;5036988;28;20286;-62
2023/06/09 02:10:31;;;;;;;0.00;0.00;;;;;;;14.11;79.31;98191.22;5038888;28;20230;-62
2023/06/09 02:12:58;;;;;;;0.00;0.00;;;;;;;14.24;78.72;98203.72;5042431;28;20320;-62
2023/06/09 02:15:26;;;;;;;0.00;0.00;;;;;;;14.25;79.45;98195.63;5042665;28;20756;-62
2023/06/09 02:17:54;;;;;;;0.00;0.00;;;;;;;14.30;79.82;98195.09;5031062;28;20272;-62
2023/06/09 02:20:22;;;;;;;0.00;0.00;;;;;;;14.21;80.41;98194.38;5046068;28;20247;-63
2023/06/09 02:22:48;;;;;;;0.00;0.00;;;;;;;14.20;80.96;98192.75;5042949;28;20705;-63
2023/06/09 02:25:15;;;;;;;0.00;0.00;;;;;;;14.30;82.46;98190.63;5045383;28;20238;-62
2023/06/09 02:27:41;;;;;;;0.00;0.00;;;;;;;14.21;82.37;98190.94;5046620;28;20219;-62
2023/06/09 02:30:09;;;;;;;0.00;0.00;;;;;;;14.20;81.83;98190.13;5044357;28;20265;-62
2023/06/09 02:32:37;;;;;;;0.00;0.00;;;;;;;14.23;82.86;98187.13;5040364;28;20780;-62
2023/06/09 02:35:04;;;;;;;0.00;0.00;;;;;;;14.15;82.83;98184.63;5039106;28;20239;-62
2023/06/09 02:37:31;;;;;;;0.00;0.00;;;;;;;14.05;82.85;98179.66;5042678;28;20241;-62
2023/06/09 02:39:58;;;;;;;0.00;0.00;;;;;;;13.99;82.93;98185.66;5041998;28;20224;-62
2023/06/09 02:42:26;;;;;;;0.00;0.00;;;;;;;13.99;83.01;98193.53;5045570;28;20246;-62
2023/06/09 02:44:52;;;;;;;0.00;0.00;;;;;;;13.99;83.29;98193.53;5038245;28;20629;-62
2023/06/09 02:47:19;;;;;;;0.00;0.00;;;;;;;13.98;83.45;98187.44;5043874;28;20428;-62
2023/06/09 02:49:50;;;;;;;0.00;0.00;;;;;;;13.95;83.37;98192.25;5041884;28;20225;-62
2023/06/09 02:52:17;;;;;;;0.00;0.00;;;;;;;13.89;83.47;98191.16;5044428;28;20249;-62
2023/06/09 02:54:49;;;;;;;0.00;0.00;;;;;;;13.82;84.49;98192.88;5041271;28;20219;-62
2023/06/09 02:57:15;;;;;;;0.00;0.00;;;;;;;13.75;85.70;98192.03;5044744;28;20899;-62
2023/06/09 03:00:08;;;;;;;0.00;0.00;;;;;;;13.71;85.99;98181.91;5041476;28;20231;-62
2023/06/09 03:05:20;;;;;;;0.00;0.00;;;;;;;13.53;87.60;98179.63;4958038;28;20235;-62
2023/06/09 03:07:50;;;;;;;0.00;0.00;;;;;;;13.39;88.22;98180.41;4967780;28;20237;-62
2023/06/09 03:10:19;;;;;;;0.00;0.00;;;;;;;13.31;88.92;98175.22;4962888;28;20703;-62
2023/06/09 03:12:48;;;;;;;0.00;0.00;;;;;;;13.23;89.32;98176.97;4968074;28;20236;-62
2023/06/09 03:15:16;;;;;;;0.00;0.00;;;;;;;13.20;90.03;98174.69;4978448;28;20712;-62
2023/06/09 03:17:44;;;;;;;0.00;0.00;;;;;;;13.14;90.54;98178.84;4989014;28;20233;-62
2023/06/09 03:20:12;;;;;;;0.00;0.00;;;;;;;13.09;90.60;98181.19;4990518;28;20668;-62
2023/06/09 03:22:41;;;;;;;0.00;0.00;;;;;;;13.06;90.83;98178.91;4979921;28;20233;-62
2023/06/09 03:25:08;;;;;;;0.00;0.00;;;;;;;13.03;91.08;98174.03;4989632;28;20234;-62
2023/06/09 03:27:35;;;;;;;0.00;0.00;;;;;;;13.02;91.47;98182.88;4992024;28;20233;-62
2023/06/09 03:32:52;;;;;;;0.00;0.00;;;;;;;12.96;92.20;98180.97;5125377;23;20230;-63
2023/06/09 03:35:20;;;;;;;0.00;0.00;;;;;;;12.93;92.33;98181.31;5015604;28;20229;-62
2023/06/09 03:37:48;;;;;;;0.00;0.00;;;;;;;12.94;91.96;98188.19;5010027;28;20286;-63
2023/06/09 03:40:15;;;;;;;0.00;0.00;;;;;;;12.95;93.19;98179.34;5013486;28;20283;-63
2023/06/09 03:42:42;;;;;;;0.00;0.00;;;;;;;12.96;93.20;98181.78;5006240;28;20259;-63
2023/06/09 03:45:10;;;;;;;0.00;0.00;;;;;;;12.93;93.50;98187.38;4994171;28;20225;-63
2023/06/09 03:47:37;;;;;;;0.00;0.00;;;;;;;12.93;93.52;98194.41;5013670;28;20224;-63
2023/06/09 03:50:04;;;;;;;0.00;0.00;;;;;;;12.93;93.59;98200.47;4991128;28;20233;-63
2023/06/09 03:52:33;;;;;;;0.00;0.00;;;;;;;12.96;93.41;98194.06;4994501;28;20233;-63
2023/06/09 03:55:02;;;;;;;0.00;0.00;;;;;;;12.95;93.77;98195.88;4994432;28;20224;-62
2023/06/09 03:57:32;;;;;;;0.00;0.00;;;;;;;12.99;93.51;98198.94;4996865;28;20234;-62
2023/06/09 03:59:59;;;;;;;0.00;0.00;;;;;;;12.98;93.23;98202.56;4994714;28;20231;-62
2023/06/09 04:02:26;;;;;;;0.00;0.00;;;;;;;13.00;93.53;98200.56;4996166;28;20727;-62
2023/06/09 04:04:53;;;;;;;0.00;0.00;;;;;;;12.98;93.02;98200.78;5004795;28;20266;-62
2023/06/09 04:07:20;;;;;;;0.00;0.00;;;;;;;13.01;93.10;98191.72;4992562;28;20232;-62
2023/06/09 04:09:51;;;;;;;0.00;0.00;;;;;;;13.01;93.37;98209.28;5005283;28;20281;-62
2023/06/09 04:12:19;;;;;;;0.00;0.00;;;;;;;13.06;93.37;98207.72;5005693;28;20239;-62
2023/06/09 04:14:50;;;;;;;0.00;0.00;;;;;;;13.10;93.92;98210.84;5000847;28;20316;-62
2023/06/09 04:17:16;;;;;;;0.00;0.00;;;;;;;13.14;94.07;98201.63;4996905;28;20235;-62
2023/06/09 04:19:51;;;;;;;0.00;0.00;;;;;;;13.17;94.51;98203.88;5011769;28;20240;-62
2023/06/09 04:22:18;;;;;;;0.00;0.00;;;;;;;13.17;95.13;98205.69;5000583;28;20287;-62
2023/06/09 04:24:49;;;;;;;0.00;0.00;;;;;;;13.14;95.67;98207.66;4998786;28;20311;-62
2023/06/09 04:27:19;;;;;;;0.00;0.00;;;;;;;13.19;96.33;98208.94;4998737;28;20232;-62
2023/06/09 04:29:51;;;;;;;0.00;0.00;;;;;;;13.23;96.93;98204.97;5011180;28;20227;-62
2023/06/09 04:32:18;;;;;;;0.00;0.00;;;;;;;13.28;96.00;98207.88;4996857;28;20645;-62
2023/06/09 04:34:49;;;;;;;0.00;0.00;;;;;;;13.36;96.55;98204.34;5009847;28;20286;-63
2023/06/09 04:37:16;;;;;;;0.00;0.00;;;;;;;13.43;96.82;98206.13;5013975;28;20603;-62
2023/06/09 04:40:09;;;;;;;0.00;0.00;;;;;;;13.51;96.60;98207.81;5010990;28;20235;-62
2023/06/09 04:42:37;;;;;;;0.00;0.00;;;;;;;13.57;95.68;98203.69;4990044;28;20774;-62
2023/06/09 04:45:06;;;;;;;0.00;0.00;;;;;;;13.67;94.71;98212.09;4992978;28;20326;-62
2023/06/09 04:47:34;;;;;;;0.00;0.00;;;;;;;13.71;94.03;98217.78;4999674;28;20819;-62
2023/06/09 04:50:02;;;;;;;0.00;0.00;;;;;;;13.74;94.29;98217.41;4991835;28;20227;-62
2023/06/09 04:52:30;;;;;;;0.00;0.00;;;;;;;13.79;93.62;98220.31;5005673;28;20235;-62
2023/06/09 04:54:57;;;;;;;0.00;0.00;;;;;;;13.83;92.02;98218.13;4994905;28;20281;-62
2023/06/09 04:57:28;;;;;;;0.00;0.00;;;;;;;13.90;91.64;98226.09;4997053;28;20301;-62
2023/06/09 04:59:55;;;;;;;0.00;0.00;;;;;;;13.91;90.80;98230.34;4999303;28;20714;-62
2023/06/09 05:02:23;;;;;;;0.00;0.00;;;;;;;13.97;91.25;98229.63;4994461;28;20233;-62
2023/06/09 05:04:50;;;;;;;0.00;0.00;;;;;;;13.98;92.28;98226.81;4993528;28;20249;-62
2023/06/09 05:07:17;;;;;;;0.00;0.00;;;;;;;14.05;92.14;98240.03;4995985;28;20228;-62
2023/06/09 05:09:49;;;;;;;0.00;0.00;;;;;;;14.05;91.67;98228.69;5001706;28;20235;-62
2023/06/09 05:12:17;;;;;;;0.00;0.00;;;;;;;14.06;91.54;98230.31;5007431;28;20259;-62
2023/06/09 05:14:50;;;;;;;0.00;0.00;;;;;;;14.07;91.92;98231.97;5008110;28;20228;-62
2023/06/09 05:17:18;;;;;;;0.00;0.00;;;;;;;14.11;92.20;98233.22;5005957;28;20973;-62
2023/06/09 05:19:50;;;;;;;0.00;0.00;;;;;;;14.16;92.28;98243.97;5005757;28;20231;-62
2023/06/09 05:22:17;;;;;;;0.00;0.00;;;;;;;14.15;91.86;98242.34;4994923;28;20246;-62
2023/06/09 05:24:49;;;;;;;0.00;0.00;;;;;;;14.19;92.39;98240.19;5009022;28;20251;-62
2023/06/09 05:27:16;;;;;;;0.00;0.00;;;;;;;14.29;92.04;98243.34;5003333;28;20229;-62
2023/06/09 05:29:49;;;;;;;0.00;0.00;;;;;;;14.32;92.26;98242.94;5008806;28;20212;-62
2023/06/09 05:32:16;;;;;;;0.00;0.00;;;;;;;14.39;91.52;98235.97;4997019;28;20335;-62
2023/06/09 05:35:09;;;;;;;0.00;0.00;;;;;;;14.50;91.02;98244.34;5004014;28;20286;-62
2023/06/09 05:37:40;;;;;;;0.00;0.00;;;;;;;14.60;91.16;98253.59;4994150;28;20237;-62
2023/06/09 05:40:08;;;;;;;0.00;0.00;;;;;;;14.83;91.30;98246.53;5007445;28;20238;-62
2023/06/09 05:42:35;;;;;;;0.00;0.00;;;;;;;15.20;89.74;98250.72;5015479;28;20602;-62
2023/06/09 05:45:02;;;;;;;0.00;0.00;;;;;;;15.52;88.58;98260.06;5006919;28;20557;-62
2023/06/09 05:47:29;;;;;;;0.00;0.00;;;;;;;15.70;86.63;98252.50;5016118;28;20237;-62
2023/06/09 05:49:56;;;;;;;0.00;0.00;;;;;;;15.93;85.31;98254.03;5012644;28;20675;-62
2023/06/09 05:52:24;;;;;;;0.00;0.00;;;;;;;16.13;84.18;98255.97;5017198;28;20310;-62
2023/06/09 05:54:50;;;;;;;0.00;0.00;;;;;;;16.28;83.26;98264.53;5013990;28;20240;-62
2023/06/09 05:57:18;;;;;;;0.00;0.00;;;;;;;16.42;83.54;98257.50;5013850;28;20629;-62
2023/06/09 05:59:48;;;;;;;0.00;0.00;;;;;;;16.60;79.38;98261.38;5011520;28;20682;-62
2023/06/09 06:02:15;;;;;;;0.00;0.00;;;;;;;16.64;77.29;98266.06;5015980;28;20242;-62
2023/06/09 06:05:08;;;;;;;0.00;0.00;;;;;;;16.68;75.83;98263.84;5015148;28;20762;-62
2023/06/09 06:07:37;;;;;;;0.00;0.00;;;;;;;16.72;77.43;98269.53;5018126;28;20296;-62
2023/06/09 06:10:04;;;;;;;0.00;0.00;;;;;;;16.91;76.09;98275.84;5008605;28;20242;-62
2023/06/09 06:12:31;;;;;;;0.00;0.00;;;;;;;16.96;76.11;98271.63;5015232;28;20269;-62
2023/06/09 06:14:57;;;;;;;0.00;0.00;;;;;;;17.03;75.91;98276.91;5012413;28;20231;-62
2023/06/09 06:17:24;;;;;;;0.00;0.00;;;;;;;17.15;77.10;98273.69;5017051;28;20254;-62
2023/06/09 06:19:51;;;;;;;0.00;0.00;;;;;;;17.37;75.87;98277.75;5013360;28;20235;-62
2023/06/09 06:22:18;;;;;;;0.00;0.00;;;;;;;17.42;75.09;98274.47;5018229;28;20255;-62
2023/06/09 06:24:50;;;;;;;0.00;0.00;;;;;;;17.61;74.73;98278.13;5013716;28;20625;-63
2023/06/09 06:27:16;;;;;;;0.00;0.00;;;;;;;17.76;75.21;98277.06;5012566;28;20825;-63
2023/06/09 06:29:48;;;;;;;0.00;0.00;;;;;;;18.00;73.94;98275.66;5014466;28;20748;-63
2023/06/09 06:32:15;;;;;;;0.00;0.00;;;;;;;18.00;72.96;98283.56;5015336;28;20303;-63
2023/06/09 06:35:08;;;;;;;0.00;0.00;;;;;;;18.17;72.19;98273.34;5013886;28;20250;-63
2023/06/09 06:37:35;;;;;;;0.00;0.00;;;;;;;18.26;72.29;98273.91;5015655;28;20232;-63
2023/06/09 06:40:04;;;;;;;0.00;0.00;;;;;;;18.24;71.95;98275.94;5013099;28;20236;-63
2023/06/09 06:42:31;;;;;;;0.00;0.00;;;;;;;18.29;72.37;98274.31;5009242;28;20309;-63
2023/06/09 06:45:13;;;;;;;0.00;0.00;;;;;;;18.46;71.18;98287.06;4995505;28;20238;-63
2023/06/09 06:47:40;;;;;;;0.00;0.00;;;;;;;18.21;73.49;98281.66;5014729;28;20228;-63
2023/06/09 06:50:09;;;;;;;0.00;0.00;;;;;;;18.48;72.64;98289.47;5013322;28;20240;-63
2023/06/09 06:52:36;;;;;;;0.00;0.00;;;;;;;18.49;71.40;98291.94;5016795;28;20234;-63
2023/06/09 06:55:05;;;;;;;0.00;0.00;;;;;;;18.54;70.82;98294.75;5010338;28;20232;-63
2023/06/09 06:57:31;;;;;;;0.00;0.00;;;;;;;18.66;70.64;98300.16;5016706;28;20731;-63
2023/06/09 06:59:58;;;;;;;0.00;0.00;;;;;;;18.65;70.10;98303.00;5012139;28;20228;-63
2023/06/09 07:02:24;;;;;;;0.00;0.00;;;;;;;18.60;70.78;98303.66;4997581;28;20230;-63
2023/06/09 07:04:51;;;;;;;0.00;0.00;;;;;;;18.77;71.02;98309.25;5012794;28;20230;-63
2023/06/09 07:07:18;;;;;;;0.00;0.00;;;;;;;18.90;70.01;98313.66;5016055;28;20240;-63
2023/06/09 07:09:49;;;;;;;0.00;0.00;;;;;;;18.84;68.13;98311.88;5007024;28;20703;-63
2023/06/09 07:12:16;;;;;;;0.00;0.00;;;;;;;18.98;68.18;98318.75;5009282;28;20602;-63
2023/06/09 07:14:48;;;;;;;0.00;0.00;;;;;;;19.16;67.14;98325.13;5014492;28;20225;-63
2023/06/09 07:17:15;;;;;;;0.00;0.00;;;;;;;19.00;68.35;98313.22;5015420;28;20241;-63
2023/06/09 07:20:08;;;;;;;0.00;0.00;;;;;;;19.30;68.49;98315.25;5015074;28;20223;-63
2023/06/09 07:22:35;;;;;;;0.00;0.00;;;;;;;19.46;67.06;98313.91;5010311;28;20256;-63
2023/06/09 07:25:01;;;;;;;0.00;0.00;;;;;;;19.34;67.94;98300.56;5008808;28;20228;-63
2023/06/09 07:27:29;;;;;;;0.00;0.00;;;;;;;19.37;68.01;98305.44;5014171;28;20235;-63
2023/06/09 07:29:56;;;;;;;0.00;0.00;;;;;;;19.55;68.06;98309.16;5011355;28;20290;-63
2023/06/09 07:32:22;;;;;;;0.00;0.00;;;;;;;19.53;68.59;98314.66;5010112;28;20255;-63
2023/06/09 07:34:50;;;;;;;0.00;0.00;;;;;;;19.61;68.71;98303.78;5013562;28;20636;-63
2023/06/09 07:37:17;;;;;;;0.00;0.00;;;;;;;19.75;68.95;98311.63;5016940;28;20245;-63
2023/06/09 07:39:48;;;;;;;0.00;0.00;;;;;;;19.90;69.73;98311.28;5009131;28;20262;-63
2023/06/09 07:42:15;;;;;;;0.00;0.00;;;;;;;19.98;68.84;98311.00;5015528;28;20238;-63
2023/06/09 07:45:10;;;;;;;0.00;0.00;;;;;;;20.07;69.05;98319.50;5009929;28;20238;-63
2023/06/09 07:47:36;;;;;;;0.00;0.00;;;;;;;20.18;68.91;98317.94;5014724;28;20766;-63
2023/06/09 07:50:06;;;;;;;0.00;0.00;;;;;;;20.26;69.36;98315.00;5011359;28;20244;-63
2023/06/09 07:52:33;;;;;;;0.00;0.00;;;;;;;20.29;70.22;98324.31;5014371;28;20229;-63
2023/06/09 07:54:59;;;;;;;0.00;0.00;;;;;;;20.50;69.53;98318.56;5011298;28;20233;-63
2023/06/09 07:57:26;;;;;;;0.00;0.00;;;;;;;20.55;68.76;98320.56;5014391;28;20245;-63
2023/06/09 07:59:53;;;;;;;0.00;0.00;;;;;;;20.58;68.32;98309.50;5012919;28;20773;-63
2023/06/09 08:02:23;;;;;;;0.00;0.00;;;;;;;20.76;68.11;98316.59;4995176;28;20233;-63
2023/06/09 08:04:50;;;;;;;0.00;0.00;;;;;;;20.70;67.89;98314.84;5008222;28;20633;-63
2023/06/09 08:07:16;;;;;;;0.00;0.00;;;;;;;20.73;68.64;98308.28;5014711;28;20233;-63
2023/06/09 08:09:49;;;;;;;0.00;0.00;;;;;;;20.71;68.04;98307.69;5010780;28;20279;-63
2023/06/09 08:12:16;;;;;;;0.00;0.00;;;;;;;20.84;68.93;98306.75;5012557;28;20335;-63
2023/06/09 08:15:09;;;;;;;0.00;0.00;;;;;;;20.93;69.69;98300.09;5010287;28;20240;-63
2023/06/09 08:17:37;;;;;;;0.00;0.00;;;;;;;20.99;68.22;98301.00;5009714;28;20225;-63
2023/06/09 08:20:05;;;;;;;0.00;0.00;;;;;;;21.06;68.42;98307.03;5011589;28;20239;-63
2023/06/09 08:22:31;;;;;;;0.00;0.00;;;;;;;21.33;67.92;98299.47;5012721;28;20237;-63
2023/06/09 08:24:58;;;;;;;0.00;0.00;;;;;;;21.41;67.44;98298.31;5009994;28;20230;-63
2023/06/09 08:27:25;;;;;;;0.00;0.00;;;;;;;21.43;65.86;98303.41;5015149;28;20225;-63
2023/06/09 08:29:51;;;;;;;0.00;0.00;;;;;;;21.35;66.35;98301.91;5011020;28;20644;-63
2023/06/09 08:32:18;;;;;;;0.00;0.00;;;;;;;21.43;67.32;98301.56;5008643;28;20245;-63
2023/06/09 08:34:50;;;;;;;0.00;0.00;;;;;;;21.60;66.75;98299.03;5008174;28;20316;-63
2023/06/09 08:37:17;;;;;;;0.00;0.00;;;;;;;21.69;65.18;98294.22;5009775;28;20587;-63
2023/06/09 08:39:49;;;;;;;0.00;0.00;;;;;;;21.71;65.32;98299.28;5011638;28;20238;-63
2023/06/09 08:42:22;;;;;;;0.00;0.00;;;;;;;21.71;64.33;98300.09;5013595;28;20238;-64
2023/06/09 08:44:51;;;;;;;0.00;0.00;;;;;;;21.83;64.65;98286.81;5008297;28;20236;-63
2023/06/09 08:47:21;;;;;;;0.00;0.00;;;;;;;22.01;64.59;98285.06;5012800;28;20230;-63
2023/06/09 08:49:53;;;;;;;0.00;0.00;;;;;;;22.09;63.70;98290.00;5007536;28;20331;-63
2023/06/09 08:52:20;;;;;;;0.00;0.00;;;;;;;22.08;63.86;98291.84;5017749;28;20330;-63
2023/06/09 08:54:50;;;;;;;0.00;0.00;;;;;;;22.22;65.07;98287.09;5012464;28;20252;-63
2023/06/09 08:57:17;;;;;;;0.00;0.00;;;;;;;22.47;63.99;98285.97;5015141;28;20591;-63
2023/06/09 08:59:50;;;;;;;0.00;0.00;;;;;;;22.65;62.97;98289.50;5008527;28;20237;-63
2023/06/09 09:02:17;;;;;;;0.00;0.00;;;;;;;22.52;61.55;98290.59;5009017;28;20728;-63
2023/06/09 09:04:50;;;;;;;0.00;0.00;;;;;;;22.68;61.96;98287.19;5010144;28;20234;-63
2023/06/09 09:07:17;;;;;;;0.00;0.00;;;;;;;22.76;62.41;98285.97;5011285;28;20223;-63
2023/06/09 09:09:48;;;;;;;0.00;0.00;;;;;;;22.92;61.54;98287.03;5013768;28;20242;-63
2023/06/09 09:12:15;;;;;;;0.00;0.00;;;;;;;23.13;60.94;98285.56;5012186;28;20243;-63
2023/06/09 09:14:46;;;;;;;0.00;0.00;;;;;;;23.26;59.85;98279.13;5008566;28;20235;-63
2023/06/09 09:17:15;;;;;;;0.00;0.00;;;;;;;23.21;59.14;98279.00;5014871;28;20232;-63
2023/06/09 09:19:49;;;;;;;0.00;0.00;;;;;;;23.20;61.21;98273.94;5010426;28;20231;-63
2023/06/09 09:22:17;;;;;;;0.00;0.00;;;;;;;23.31;61.19;98275.75;5011334;28;20227;-63
2023/06/09 09:24:49;;;;;;;0.00;0.00;;;;;;;23.57;60.35;98271.59;5009673;28;20324;-63
2023/06/09 09:27:17;;;;;;;0.00;0.00;;;;;;;23.80;59.70;98279.63;5014446;28;20223;-63
2023/06/09 09:29:49;;;;;;;0.00;0.00;;;;;;;23.87;57.72;98273.03;5004972;28;20322;-63
2023/06/09 09:32:23;;;;;;;0.00;0.00;;;;;;;24.08;56.74;98275.22;5013258;28;20315;-63
2023/06/09 09:34:50;;;;;;;0.00;0.00;;;;;;;24.16;56.52;98269.44;5009647;28;20267;-63
2023/06/09 09:37:21;;;;;;;0.00;0.00;;;;;;;24.17;56.02;98263.06;5012987;28;20747;-63
2023/06/09 09:39:50;;;;;;;0.00;0.00;;;;;;;24.22;57.25;98260.44;5006470;28;20242;-63
2023/06/09 09:42:17;;;;;;;0.00;0.00;;;;;;;24.47;56.73;98264.44;5010844;28;20261;-63
2023/06/09 09:44:51;;;;;;;7.40;6.53;;;;;;;24.69;56.24;98260.91;5011792;28;20237;-63
2023/06/09 09:47:19;;;;;;;0.00;0.00;;;;;;;24.93;54.06;98261.41;5010021;28;20726;-63
2023/06/09 09:49:51;;;;;;;0.00;0.00;;;;;;;24.95;52.05;98256.63;5009220;28;20250;-63
2023/06/09 09:52:25;;;;;;;0.00;0.00;;;;;;;25.15;52.72;98255.19;5011086;28;20254;-63
2023/06/09 09:54:53;;;;;;;0.00;0.00;;;;;;;25.00;51.08;98245.19;5008863;28;20228;-63
2023/06/09 09:57:23;;;;;;;7.20;5.90;;;;;;;25.22;49.14;98252.31;5006199;28;20228;-63
2023/06/09 09:59:51;;;;;;;8.60;5.30;;;;;;;25.40;51.01;98245.75;5009001;28;20238;-63
2023/06/09 10:02:22;;;;;;;4.33;3.93;;;;;;;25.42;42.04;98241.78;5007985;28;20281;-63
2023/06/09 10:04:50;;;;;;;4.77;3.80;;;;;;;25.68;40.11;98236.56;4995599;28;20337;-63
2023/06/09 10:07:22;;;;;;;0.00;0.00;;;;;;;25.52;37.64;98232.22;5014288;28;20724;-63
2023/06/09 10:09:52;;;;;;;6.37;4.00;;;;;;;25.83;38.11;98233.19;5009828;28;20265;-63
2023/06/09 10:12:19;;;;;;;0.00;0.00;;;;;;;26.16;38.82;98236.53;5008709;28;20231;-63
2023/06/09 10:14:49;;;;;;;0.00;0.00;;;;;;;26.44;38.94;98241.69;5013465;28;20241;-64
2023/06/09 10:17:20;;;;;;;5.07;3.97;;;;;;;26.32;35.20;98221.34;5012907;28;20234;-64
2023/06/09 10:19:51;;;;;;;4.37;3.97;;;;;;;26.46;34.86;98235.00;5005194;28;20237;-64
2023/06/09 10:22:19;;;;;;;4.20;3.80;;;;;;;26.64;33.83;98227.53;5011257;28;20238;-64
2023/06/09 10:24:51;;;;;;;4.20;3.80;;;;;;;26.56;34.74;98234.19;5009134;28;20261;-64
2023/06/09 10:27:18;;;;;;;4.20;3.73;;;;;;;26.79;34.83;98230.22;5007423;28;20717;-64
2023/06/09 10:29:49;;;;;;;4.53;4.07;;;;;;;26.89;34.82;98225.97;5009511;28;20232;-64
2023/06/09 10:32:16;;;;;;;6.00;3.67;;;;;;;27.22;34.54;98221.09;5013321;28;20288;-64
2023/06/09 10:34:50;;;;;;;0.00;0.00;;;;;;;27.39;32.39;98215.47;5013914;28;20232;-64
2023/06/09 10:37:28;;;;;;;5.10;4.30;;;;;;;27.40;34.57;98215.19;5010392;28;20682;-64
2023/06/09 10:40:06;;;;;;;5.03;4.20;;;;;;;27.69;33.69;98219.13;5005196;28;20221;-64
2023/06/09 10:42:52;;;;;;;4.17;3.80;;;;;;;27.95;32.26;98219.03;4999501;28;20700;-64
2023/06/09 10:45:19;;;;;;;5.03;4.60;;;;;;;27.80;32.67;98212.66;5016402;28;20406;-64
2023/06/09 10:47:48;;;;;;;5.35;4.43;;;;;;;28.12;31.65;98213.31;4997039;28;20788;-64
2023/06/09 10:50:23;;;;;;;0.00;0.00;;;;;;;28.36;31.65;98210.00;5012000;28;20229;-64
2023/06/09 10:52:53;;;;;;;0.00;0.00;;;;;;;28.45;32.22;98211.00;5014117;28;20234;-64
2023/06/09 10:55:23;;;;;;;0.00;0.00;;;;;;;28.53;30.61;98207.72;5017297;28;20237;-63
2023/06/09 10:57:51;;;;;;;4.53;4.13;;;;;;;28.21;30.86;98197.47;5006574;28;20243;-63
2023/06/09 11:00:18;;;;;;;5.20;4.53;;;;;;;28.35;31.05;98200.34;5015568;28;20245;-63
2023/06/09 11:02:49;;;;;;;4.20;3.80;;;;;;;28.56;29.92;98201.81;5013831;28;20713;-63
2023/06/09 11:05:16;;;;;;;4.47;4.07;;;;;;;28.70;30.34;98187.75;5013023;28;20815;-63
2023/06/09 11:07:52;;;;;;;5.22;4.13;;;;;;;28.61;30.79;98190.25;5014328;28;20239;-64
2023/06/09 11:10:29;;;;;;;0.00;0.00;;;;;;;28.31;30.30;98200.09;5013592;28;20233;-64
2023/06/09 11:12:57;;;;;;;6.95;4.25;;;;;;;27.92;30.75;98187.41;5013637;28;20683;-64
2023/06/09 11:15:33;;;;;;;5.13;3.72;;;;;;;27.72;29.61;98191.00;5014672;28;20322;-64
2023/06/09 11:18:16;;;;;;;4.70;4.20;;;;;;;28.22;29.46;98191.81;5013301;28;20284;-64
2023/06/09 11:20:43;;;;;;;4.32;3.92;;;;;;;28.63;27.65;98198.78;5014613;28;20314;-63
2023/06/09 11:23:09;;;;;;;5.78;4.10;;;;;;;28.41;27.83;98197.34;5004350;28;20239;-63
2023/06/09 11:25:40;;;;;;;6.20;4.00;;;;;;;28.32;28.07;98192.84;5014194;28;20292;-63
2023/06/09 11:28:22;;;;;;;4.63;4.23;;;;;;;28.17;29.62;98191.06;5007222;28;20222;-63
2023/06/09 11:31:01;;;;;;;4.40;4.00;;;;;;;28.20;29.26;98195.88;5011999;28;20237;-68
2023/06/09 11:33:46;;;;;;;4.97;4.10;;;;;;;28.47;30.46;98186.59;5016169;28;20233;-64
2023/06/09 11:36:20;;;;;;;5.03;3.95;;;;;;;28.75;27.87;98176.13;5011011;28;20321;-64
2023/06/09 11:38:48;;;;;;;5.55;3.95;;;;;;;28.81;28.21;98169.66;5010033;28;20235;-62
2023/06/09 11:41:21;;;;;;;4.72;3.70;;;;;;;29.07;29.48;98172.13;5012703;28;20250;-62
2023/06/09 11:43:53;;;;;;;0.00;0.00;;;;;;;29.28;28.64;98167.31;5011541;28;20318;-62
2023/06/09 11:46:20;;;;;;;0.00;0.00;;;;;;;29.34;28.36;98162.72;5015213;28;20752;-62
2023/06/09 11:49:04;;;;;;;0.00;0.00;;;;;;;29.62;27.17;98169.13;5010169;28;20297;-63
2023/06/09 11:51:58;;;;;;;0.00;0.00;;;;;;;29.25;29.39;98167.91;5010056;28;20227;-63
2023/06/09 11:54:46;;;;;;;0.00;0.00;;;;;;;28.39;29.69;98158.44;5009017;28;20238;-63